Time;durP1;ratioP1;P1;durP2;ratioP2;P2;SDS_P1;SDS_P2;PMS_P1;PMS_P2;Temp;Humidity;BMP_temperature;BMP_pressure;BME280_temperature;BME280_humidity;BME280_pressure;Samples;Min_cycle;Max_cycle;Signal;HPM_P1;HPM_P2
2023/09/05 00:02:14;;;;;;;5.70;3.50;;;;;;;15.64;100.00;101035.02;105543;1259;72114;-51
2023/09/05 00:04:46;;;;;;;7.50;3.90;;;;;;;15.68;100.00;101040.33;105632;1262;60740;-53
2023/09/05 00:07:15;;;;;;;4.30;3.60;;;;;;;15.70;100.00;101032.57;105579;1256;60563;-55
2023/09/05 00:09:43;;;;;;;5.30;3.10;;;;;;;15.74;100.00;101024.80;105533;1261;72840;-51
2023/09/05 00:12:10;;;;;;;10.10;3.60;;;;;;;15.78;100.00;101014.58;105532;1257;64551;-55
2023/09/05 00:14:38;;;;;;;9.60;3.70;;;;;;;15.83;100.00;101009.41;105529;1261;72652;-52
2023/09/05 00:17:06;;;;;;;14.90;4.20;;;;;;;15.85;100.00;100997.16;105597;1257;60431;-51
2023/09/05 00:19:34;;;;;;;8.80;3.90;;;;;;;15.87;100.00;100985.10;105555;1261;60349;-54
2023/09/05 00:22:02;;;;;;;5.10;3.10;;;;;;;15.87;100.00;100974.48;105514;1257;72139;-58
2023/09/05 00:24:37;;;;;;;4.10;3.10;;;;;;;15.86;100.00;100974.52;105590;1256;63193;-52
2023/09/05 00:27:07;;;;;;;8.40;3.30;;;;;;;15.84;100.00;100984.31;105558;1259;71225;-52
2023/09/05 00:29:35;;;;;;;11.30;4.00;;;;;;;15.83;100.00;100990.98;105555;1257;60525;-49
2023/09/05 00:32:03;;;;;;;14.80;3.70;;;;;;;15.80;100.00;100996.10;105555;1260;60349;-51
2023/09/05 00:34:33;;;;;;;14.30;4.10;;;;;;;15.80;100.00;101006.70;105588;1262;72598;-50
2023/09/05 00:37:02;;;;;;;7.40;3.50;;;;;;;15.83;100.00;101029.94;105580;1261;63101;-52
2023/09/05 00:39:30;;;;;;;7.40;3.60;;;;;;;15.86;100.00;101041.52;105560;1262;71344;-51
2023/09/05 00:41:58;;;;;;;7.70;3.50;;;;;;;15.84;100.00;101041.73;105593;1262;60411;-49
2023/09/05 00:44:26;;;;;;;8.60;3.50;;;;;;;15.83;100.00;101049.80;105503;1262;60300;-50
2023/09/05 00:46:55;;;;;;;12.40;3.50;;;;;;;15.82;100.00;101055.05;105438;1257;72221;-51
2023/09/05 00:49:27;;;;;;;9.40;3.90;;;;;;;15.83;100.00;101066.48;105620;1256;64492;-51
2023/09/05 00:51:59;;;;;;;9.00;3.60;;;;;;;15.89;100.00;101082.83;105583;1262;71424;-52
2023/09/05 00:54:27;;;;;;;6.10;3.40;;;;;;;15.95;100.00;101080.58;105570;1257;60557;-49
2023/09/05 00:56:55;;;;;;;6.20;3.50;;;;;;;15.98;100.00;101069.20;105462;1262;60293;-51
2023/09/05 00:59:23;;;;;;;8.70;3.60;;;;;;;15.97;100.00;101059.46;105456;1264;72927;-50
2023/09/05 01:01:50;;;;;;;8.50;3.80;;;;;;;15.96;100.00;101065.08;105543;1262;63154;-50
2023/09/05 01:04:18;;;;;;;5.10;3.70;;;;;;;15.95;100.00;101078.33;105539;1262;72735;-50
2023/09/05 01:07:08;;;;;;;10.20;3.50;;;;;;;15.94;100.00;101077.84;105297;1257;61655;-49
2023/09/05 01:09:54;;;;;;;9.20;3.60;;;;;;;15.94;100.00;101084.10;105548;1261;60346;-52
2023/09/05 01:12:22;;;;;;;;;;;;;;;15.93;100.00;101092.49;105616;1262;72442;-53
2023/09/05 01:14:50;;;;;;;9.70;3.50;;;;;;;15.91;100.00;101100.73;105596;1257;64040;-54
2023/09/05 01:17:18;;;;;;;7.60;3.20;;;;;;;15.89;100.00;101108.08;105570;1262;71334;-51
2023/09/05 01:19:46;;;;;;;5.30;3.80;;;;;;;15.89;100.00;101111.74;105238;1258;60479;-54
2023/09/05 01:22:45;;;;;;;8.70;3.60;;;;;;;15.88;100.00;101124.13;105570;1262;60519;-53
2023/09/05 01:25:13;;;;;;;4.20;3.50;;;;;;;15.82;100.00;101137.34;105397;1257;73841;-49
2023/09/05 01:27:41;;;;;;;12.80;4.00;;;;;;;15.77;100.00;101144.08;105323;1264;63292;-50
2023/09/05 01:30:09;;;;;;;7.10;3.60;;;;;;;15.73;100.00;101151.33;105549;1257;71736;-49
2023/09/05 01:32:37;;;;;;;3.90;3.60;;;;;;;15.69;100.00;101165.02;105559;1259;60523;-51
2023/09/05 01:35:06;;;;;;;10.50;3.50;;;;;;;15.65;100.00;101183.92;105561;1261;60441;-51
2023/09/05 01:37:33;;;;;;;8.60;4.00;;;;;;;15.61;100.00;101209.45;105559;1258;72330;-51
2023/09/05 01:40:01;;;;;;;6.00;3.90;;;;;;;15.58;100.00;101233.52;105598;1258;64507;-49
2023/09/05 01:42:29;;;;;;;7.70;3.90;;;;;;;15.56;100.00;101247.52;105540;1257;72596;-51
2023/09/05 01:44:56;;;;;;;9.40;3.70;;;;;;;15.53;100.00;101270.17;105523;1258;60708;-51
2023/09/05 01:47:24;;;;;;;4.20;3.60;;;;;;;15.52;100.00;101297.15;105550;1262;60409;-51
2023/09/05 01:49:52;;;;;;;5.60;3.50;;;;;;;15.52;100.00;101328.29;105585;1257;72584;-50
2023/09/05 01:52:20;;;;;;;8.30;3.80;;;;;;;15.52;100.00;101347.94;105544;1262;63257;-50
2023/09/05 01:54:47;;;;;;;4.90;3.80;;;;;;;15.54;100.00;101361.14;105520;1257;70799;-50
2023/09/05 01:57:15;;;;;;;7.00;3.30;;;;;;;15.55;100.00;101375.38;105540;1261;60495;-51
2023/09/05 01:59:42;;;;;;;12.40;3.30;;;;;;;15.54;100.00;101386.02;105447;1262;60423;-52
2023/09/05 02:02:10;;;;;;;12.20;4.00;;;;;;;15.51;100.00;101396.85;105678;1259;71664;-50
2023/09/05 02:04:38;;;;;;;8.50;3.60;;;;;;;15.48;100.00;101408.20;105726;1257;63113;-52
2023/09/05 02:07:06;;;;;;;4.00;3.40;;;;;;;15.44;100.00;101423.45;105756;1253;71071;-50
2023/09/05 02:09:35;;;;;;;8.10;3.80;;;;;;;15.39;100.00;101441.64;105779;1257;60537;-50
2023/09/05 02:12:03;;;;;;;8.20;4.00;;;;;;;15.34;100.00;101457.61;105676;1259;60426;-50
2023/09/05 02:14:32;;;;;;;8.70;3.90;;;;;;;15.28;100.00;101476.67;105842;1254;73876;-52
2023/09/05 02:17:00;;;;;;;8.50;4.00;;;;;;;15.22;100.00;101495.92;105792;1252;63521;-51
2023/09/05 02:19:29;;;;;;;6.80;3.90;;;;;;;15.17;100.00;101511.52;105668;1259;71014;-51
2023/09/05 02:21:57;;;;;;;7.10;4.10;;;;;;;15.13;100.00;101525.33;105746;1260;61776;-52
2023/09/05 02:24:26;;;;;;;4.10;3.60;;;;;;;15.08;100.00;101536.22;105796;1256;60410;-52
2023/09/05 02:26:54;;;;;;;7.10;3.80;;;;;;;15.04;100.00;101546.71;105793;1252;72577;-52
2023/09/05 02:29:25;;;;;;;6.50;4.20;;;;;;;14.99;100.00;101561.77;105774;1260;63229;-51
2023/09/05 02:31:54;;;;;;;8.40;4.60;;;;;;;14.92;100.00;101574.77;105791;1259;71407;-50
2023/09/05 02:34:23;;;;;;;10.30;4.80;;;;;;;14.86;100.00;101589.10;105765;1259;60444;-50
2023/09/05 02:36:54;;;;;;;14.60;4.20;;;;;;;14.81;100.00;101612.49;105834;1257;60483;-51
2023/09/05 02:39:22;;;;;;;8.90;3.80;;;;;;;14.75;100.00;101623.71;105723;1254;72623;-51
2023/09/05 02:41:50;;;;;;;8.60;4.60;;;;;;;14.69;100.00;101628.83;105759;1255;63148;-50
2023/09/05 02:44:17;;;;;;;11.00;3.80;;;;;;;14.64;100.00;101636.88;105672;1259;71410;-52
2023/09/05 02:46:45;;;;;;;9.10;4.00;;;;;;;14.61;100.00;101648.93;105739;1255;61677;-50
2023/09/05 02:49:13;;;;;;;5.30;3.70;;;;;;;14.57;100.00;101659.42;105722;1259;60420;-51
2023/09/05 02:51:41;;;;;;;14.10;4.40;;;;;;;14.54;100.00;101667.98;105718;1257;73823;-50
2023/09/05 02:54:08;;;;;;;7.50;3.70;;;;;;;14.50;100.00;101672.54;105745;1253;63502;-50
2023/09/05 02:56:36;;;;;;;12.40;4.60;;;;;;;14.45;100.00;101676.80;105704;1254;71098;-52
2023/09/05 02:59:04;;;;;;;9.10;4.00;;;;;;;14.40;100.00;101683.65;105708;1254;61635;-50
2023/09/05 03:01:32;;;;;;;5.10;4.00;;;;;;;14.40;100.00;101691.29;105727;1258;60419;-52
2023/09/05 03:03:59;;;;;;;7.20;3.90;;;;;;;14.39;100.00;101692.17;105744;1255;72601;-52
2023/09/05 03:06:27;;;;;;;6.40;3.60;;;;;;;14.39;100.00;101691.99;105733;1255;63200;-51
2023/09/05 03:08:56;;;;;;;6.10;4.20;;;;;;;14.37;100.00;101691.33;105647;1258;72688;-52
2023/09/05 03:11:23;;;;;;;7.40;4.00;;;;;;;14.35;100.00;101694.98;105741;1257;60528;-51
2023/09/05 03:13:52;;;;;;;6.50;3.90;;;;;;;14.34;100.00;101695.35;105686;1258;60330;-51
2023/09/05 03:16:21;;;;;;;13.90;3.90;;;;;;;14.34;100.00;101693.46;105710;1257;73603;-51
2023/09/05 03:18:50;;;;;;;6.40;3.60;;;;;;;14.33;100.00;101691.90;105755;1254;62505;-49
2023/09/05 03:21:19;;;;;;;9.20;4.70;;;;;;;14.33;100.00;101688.60;105750;1258;71077;-51
2023/09/05 03:23:47;;;;;;;5.20;4.40;;;;;;;14.33;100.00;101689.30;105719;1258;60420;-51
2023/09/05 03:26:15;;;;;;;8.00;4.20;;;;;;;14.34;100.00;101688.42;105767;1260;60410;-50
2023/09/05 03:28:43;;;;;;;7.80;4.20;;;;;;;14.34;100.00;101686.67;105735;1257;71680;-53
2023/09/05 03:31:14;;;;;;;10.60;4.10;;;;;;;14.35;100.00;101683.02;105743;1255;62831;-51
2023/09/05 03:33:42;;;;;;;15.50;5.00;;;;;;;14.37;100.00;101677.27;105700;1260;71387;-54
2023/09/05 03:36:11;;;;;;;8.80;4.60;;;;;;;14.40;100.00;101685.04;105758;1260;60495;-50
2023/09/05 03:38:38;;;;;;;8.90;3.90;;;;;;;14.41;100.00;101686.23;105826;1259;60345;-51
2023/09/05 03:41:08;;;;;;;14.90;4.40;;;;;;;14.43;100.00;101690.73;105696;1254;72770;-50
2023/09/05 03:43:36;;;;;;;7.30;4.20;;;;;;;14.46;100.00;101690.16;105728;1254;63752;-51
2023/09/05 03:46:05;;;;;;;8.80;4.50;;;;;;;14.49;100.00;101687.49;105736;1258;72694;-50
2023/09/05 03:48:33;;;;;;;9.40;4.30;;;;;;;14.51;100.00;101683.12;105673;1258;61608;-51
2023/09/05 03:51:00;;;;;;;9.90;4.40;;;;;;;14.55;100.00;101679.61;105739;1258;60400;-50
2023/09/05 03:53:30;;;;;;;10.10;4.10;;;;;;;14.58;100.00;101679.55;105877;1255;72627;-52
2023/09/05 03:55:58;;;;;;;5.70;3.90;;;;;;;14.59;100.00;101680.73;105687;1259;63203;-51
2023/09/05 03:58:26;;;;;;;5.90;4.00;;;;;;;14.61;100.00;101683.84;105826;1257;71360;-51
2023/09/05 04:00:57;;;;;;;7.60;4.20;;;;;;;14.65;100.00;101684.98;105637;1254;60556;-51
2023/09/05 04:03:25;;;;;;;6.30;3.70;;;;;;;14.69;100.00;101683.40;105866;1254;60518;-50
2023/09/05 04:05:54;;;;;;;7.70;4.00;;;;;;;14.73;100.00;101682.11;105691;1254;72570;-51
2023/09/05 04:08:21;;;;;;;8.00;3.30;;;;;;;14.79;100.00;101680.63;105885;1255;63692;-50
2023/09/05 04:10:49;;;;;;;5.50;3.70;;;;;;;14.86;100.00;101685.38;105671;1257;72665;-51
2023/09/05 04:13:17;;;;;;;6.60;4.30;;;;;;;14.92;100.00;101684.58;105715;1258;60530;-50
2023/09/05 04:15:46;;;;;;;9.90;3.90;;;;;;;15.00;100.00;101692.43;105759;1257;60336;-50
2023/09/05 04:18:13;;;;;;;6.20;4.10;;;;;;;15.07;100.00;101692.15;105727;1260;73793;-52
2023/09/05 04:20:41;;;;;;;14.10;4.50;;;;;;;15.16;100.00;101696.86;105720;1258;63129;-50
2023/09/05 04:23:09;;;;;;;5.10;4.20;;;;;;;15.25;100.00;101707.14;105679;1254;71370;-51
2023/09/05 04:25:39;;;;;;;9.40;3.70;;;;;;;15.35;100.00;101715.98;105685;1254;60518;-50
2023/09/05 04:28:08;;;;;;;4.40;3.70;;;;;;;15.45;100.00;101722.59;105730;1259;60332;-51
2023/09/05 04:30:35;;;;;;;11.00;4.50;;;;;;;15.57;100.00;101725.31;105657;1255;72550;-50
2023/09/05 04:33:06;;;;;;;12.00;4.30;;;;;;;15.72;100.00;101730.25;105739;1258;63260;-50
2023/09/05 04:35:37;;;;;;;7.10;4.10;;;;;;;15.92;100.00;101734.59;105722;1254;72636;-50
2023/09/05 04:38:05;;;;;;;7.60;3.70;;;;;;;16.11;100.00;101737.52;105740;1257;61678;-52
2023/09/05 04:40:33;;;;;;;9.40;5.10;;;;;;;16.25;100.00;101733.73;105713;1255;60518;-52
2023/09/05 04:43:03;;;;;;;6.70;4.30;;;;;;;16.39;100.00;101732.20;105693;1255;73841;-53
2023/09/05 04:45:31;;;;;;;6.80;3.80;;;;;;;16.54;100.00;101725.23;105724;1258;63557;-51
2023/09/05 04:47:58;;;;;;;8.10;4.40;;;;;;;16.70;100.00;101711.44;105693;1257;71679;-51
2023/09/05 04:50:26;;;;;;;8.60;4.40;;;;;;;16.86;100.00;101690.84;105719;1258;60563;-51
2023/09/05 04:52:54;;;;;;;4.70;3.70;;;;;;;16.95;100.00;101657.67;105751;1260;60435;-50
2023/09/05 04:55:22;;;;;;;6.90;3.90;;;;;;;17.06;100.00;101621.48;105750;1257;72358;-51
2023/09/05 04:57:49;;;;;;;10.00;3.70;;;;;;;17.18;100.00;101585.40;105730;1254;63659;-51
2023/09/05 05:00:18;;;;;;;7.10;4.10;;;;;;;17.26;100.00;101556.05;105847;1259;72643;-52
2023/09/05 05:02:46;;;;;;;7.70;4.90;;;;;;;17.39;100.00;101531.09;105739;1257;60299;-52
2023/09/05 05:05:13;;;;;;;6.20;4.10;;;;;;;17.47;100.00;101491.05;105781;1253;60486;-51
2023/09/05 05:07:41;;;;;;;6.80;4.10;;;;;;;17.54;100.00;101462.56;105702;1253;73008;-51
2023/09/05 05:10:10;;;;;;;7.40;4.40;;;;;;;17.57;100.00;101424.64;105706;1258;64331;-51
2023/09/05 05:12:37;;;;;;;8.40;4.60;;;;;;;17.52;100.00;101399.98;105851;1257;71452;-52
2023/09/05 05:15:06;;;;;;;10.90;4.30;;;;;;;17.52;100.00;101402.59;105679;1257;60521;-52
2023/09/05 05:17:34;;;;;;;10.50;4.40;;;;;;;17.55;100.00;101413.70;105705;1257;60365;-51
2023/09/05 05:20:05;;;;;;;6.20;4.40;;;;;;;17.59;100.00;101424.89;105697;1252;72533;-52
2023/09/05 05:22:33;;;;;;;8.70;4.40;;;;;;;17.59;100.00;101427.00;105721;1253;64504;-51
2023/09/05 05:25:01;;;;;;;8.60;4.50;;;;;;;17.58;100.00;101425.46;105463;1255;349548;-51
2023/09/05 05:29:33;;;;;;;5.90;4.10;;;;;;;17.64;100.00;101420.36;102930;1293;600866;-51
2023/09/05 05:32:01;;;;;;;8.30;4.40;;;;;;;17.64;100.00;101414.97;105133;1269;60396;-53
2023/09/05 05:34:29;;;;;;;10.30;4.60;;;;;;;17.66;100.00;101427.09;104963;1269;59251;-50
2023/09/05 05:36:57;;;;;;;7.40;4.50;;;;;;;17.71;100.00;101434.13;105018;1270;71124;-51
2023/09/05 05:39:25;;;;;;;10.60;5.30;;;;;;;17.78;100.00;101441.21;104885;1270;63196;-51
2023/09/05 05:41:53;;;;;;;8.20;4.90;;;;;;;17.88;100.00;101435.84;104937;1267;71560;-52
2023/09/05 05:44:21;;;;;;;11.10;6.20;;;;;;;17.96;100.00;101422.13;104962;1267;256954;-53
2023/09/05 05:46:49;;;;;;;16.30;7.30;;;;;;;17.99;100.00;101395.83;105080;1266;59344;-53
2023/09/05 05:49:16;;;;;;;13.40;7.10;;;;;;;17.94;100.00;101368.39;105166;1267;70332;-51
2023/09/05 05:51:44;;;;;;;12.00;6.80;;;;;;;17.94;100.00;101377.81;105190;1261;64703;-50
2023/09/05 05:54:12;;;;;;;14.00;6.90;;;;;;;17.99;100.00;101383.27;105138;1263;71910;-52
2023/09/05 05:56:39;;;;;;;19.20;7.60;;;;;;;18.06;100.00;101398.58;105052;1261;59717;-50
2023/09/05 05:59:07;;;;;;;13.80;7.40;;;;;;;18.16;100.00;101395.42;105126;1267;59583;-50
2023/09/05 06:01:36;;;;;;;12.30;6.60;;;;;;;18.26;100.00;101382.16;105030;1270;72995;-51
2023/09/05 06:04:05;;;;;;;11.40;7.70;;;;;;;18.31;100.00;101351.73;105089;1264;64457;-50
2023/09/05 06:06:33;;;;;;;12.80;7.50;;;;;;;18.41;100.00;101319.77;105159;1267;71075;-51
2023/09/05 06:09:01;;;;;;;13.50;7.50;;;;;;;18.45;100.00;101252.16;105064;1263;60855;-50
2023/09/05 06:11:29;;;;;;;12.80;6.90;;;;;;;18.46;100.00;101236.22;104836;1263;59634;-51
2023/09/05 06:13:56;;;;;;;13.80;7.30;;;;;;;18.47;100.00;101257.31;105133;1267;72219;-50
2023/09/05 06:16:24;;;;;;;10.40;7.20;;;;;;;18.55;100.00;101263.66;105074;1263;63153;-50
2023/09/05 06:18:53;;;;;;;16.70;7.20;;;;;;;18.57;100.00;101238.77;105159;1269;72742;-51
2023/09/05 06:21:20;;;;;;;16.50;7.70;;;;;;;18.64;100.00;101241.47;105133;1264;60392;-52
2023/09/05 06:23:48;;;;;;;8.40;6.90;;;;;;;18.74;100.00;101248.23;105137;1267;59535;-50
2023/09/05 06:26:16;;;;;;;11.40;6.90;;;;;;;18.85;100.00;101232.42;105693;1251;73021;-50
2023/09/05 06:28:43;;;;;;;12.80;7.80;;;;;;;18.87;100.00;101178.13;105739;1257;64465;-52
2023/09/05 06:31:11;;;;;;;11.20;7.20;;;;;;;18.77;100.00;101142.20;105862;1257;71665;-51
2023/09/05 06:33:39;;;;;;;10.40;7.10;;;;;;;18.71;100.00;101170.58;105673;1257;61648;-49
2023/09/05 06:36:07;;;;;;;13.30;7.10;;;;;;;18.74;100.00;101186.36;105724;1251;59991;-50
2023/09/05 06:38:36;;;;;;;10.20;7.30;;;;;;;18.79;100.00;101176.89;105910;1256;71878;-50
2023/09/05 06:41:06;;;;;;;8.90;6.90;;;;;;;18.86;100.00;101172.76;105702;1254;63243;-51
2023/09/05 06:43:36;;;;;;;12.20;7.30;;;;;;;18.90;100.00;101155.95;105851;1254;72719;-50
2023/09/05 06:46:04;;;;;;;11.30;6.10;;;;;;;18.96;100.00;101152.76;105665;1253;60512;-51
2023/09/05 06:48:34;;;;;;;17.40;7.60;;;;;;;19.06;100.00;101160.40;105929;1256;59645;-50
2023/09/05 06:51:01;;;;;;;21.70;9.70;;;;;;;19.19;100.00;101126.09;105872;1256;73018;-51
2023/09/05 06:53:32;;;;;;;26.40;11.80;;;;;;;19.16;100.00;101076.02;105706;1257;64359;-50
2023/09/05 06:56:05;;;;;;;12.10;7.50;;;;;;;19.23;100.00;101093.89;105858;1257;72639;-50
2023/09/05 06:58:36;;;;;;;12.60;7.30;;;;;;;19.34;100.00;101075.55;105710;1254;59720;-52
2023/09/05 07:01:07;;;;;;;13.50;8.80;;;;;;;19.39;100.00;101013.05;105928;1257;60493;-50
2023/09/05 07:03:37;;;;;;;17.90;8.20;;;;;;;19.35;100.00;100979.08;105701;1253;70814;-52
2023/09/05 07:06:06;;;;;;;15.10;6.50;;;;;;;19.44;100.00;101013.17;105890;1253;64531;-55
2023/09/05 07:08:38;;;;;;;10.50;7.40;;;;;;;19.56;100.00;100996.85;105705;1254;72245;-50
2023/09/05 07:11:06;;;;;;;13.10;7.20;;;;;;;19.70;100.00;100990.75;105850;1253;59615;-55
2023/09/05 07:13:34;;;;;;;12.60;6.30;;;;;;;19.87;100.00;100976.78;105658;1257;59963;-55
2023/09/05 07:16:04;;;;;;;21.60;8.20;;;;;;;20.00;100.00;100967.26;105691;1251;72964;-54
2023/09/05 07:18:32;;;;;;;12.30;6.20;;;;;;;20.13;100.00;100937.20;105688;1255;63127;-51
2023/09/05 07:21:02;;;;;;;10.20;6.80;;;;;;;20.32;100.00;100921.70;105898;1257;72650;-54
2023/09/05 07:23:35;;;;;;;10.40;6.70;;;;;;;20.37;100.00;100883.39;105710;1254;60007;-51
2023/09/05 07:26:04;;;;;;;10.60;6.70;;;;;;;20.44;100.00;100870.08;105683;1257;59618;-59
2023/09/05 07:28:33;;;;;;;20.30;6.90;;;;;;;20.46;100.00;100860.51;105717;1257;73108;-52
2023/09/05 07:31:01;;;;;;;8.60;6.10;;;;;;;20.43;100.00;100856.27;105884;1257;64430;-52
2023/09/05 07:33:29;;;;;;;26.40;6.70;;;;;;;20.36;100.00;100859.25;105867;1254;70399;-52
2023/09/05 07:35:58;;;;;;;11.00;6.10;;;;;;;20.44;100.00;100861.10;105852;1253;59699;-52
2023/09/05 07:38:28;;;;;;;7.40;5.40;;;;;;;20.58;100.00;100851.95;105710;1258;60393;-50
2023/09/05 07:41:05;;;;;;;13.80;6.40;;;;;;;20.74;100.00;100848.83;105861;1254;71817;-51
2023/09/05 07:43:34;;;;;;;7.70;5.80;;;;;;;20.88;100.00;100842.48;105913;1252;63546;-52
2023/09/05 07:46:02;;;;;;;11.90;6.70;;;;;;;21.00;100.00;100843.38;105747;1257;71503;-51
2023/09/05 07:48:30;;;;;;;6.40;5.50;;;;;;;21.19;100.00;100853.19;105728;1257;59627;-50
2023/09/05 07:51:05;;;;;;;6.10;5.60;;;;;;;21.36;100.00;100856.31;105952;1257;59711;-50
2023/09/05 07:53:37;;;;;;;13.00;6.00;;;;;;;21.55;100.00;100857.33;105722;1253;73007;-53
2023/09/05 07:56:06;;;;;;;7.60;5.50;;;;;;;21.69;100.00;100871.23;105895;1252;63821;-52
2023/09/05 08:01:58;;;;;;;13.70;7.40;;;;;;;21.84;100.00;100886.92;102757;1293;600260;-53
2023/09/05 08:04:26;;;;;;;14.20;6.40;;;;;;;21.97;100.00;100906.70;104895;1267;59330;-52
2023/09/05 08:06:53;;;;;;;13.20;6.10;;;;;;;22.14;100.00;100926.82;104894;1264;59219;-52
2023/09/05 08:09:21;;;;;;;7.40;6.40;;;;;;;22.22;100.00;100939.16;104787;1273;70948;-52
2023/09/05 08:11:49;;;;;;;6.30;5.70;;;;;;;22.46;100.00;100943.89;104953;1270;63136;-52
2023/09/05 08:14:17;;;;;;;9.10;5.90;;;;;;;22.55;100.00;100961.63;104945;1267;71637;-50
2023/09/05 08:16:45;;;;;;;12.60;6.30;;;;;;;22.56;100.00;100972.29;105086;1269;209420;-52
2023/09/05 08:19:13;;;;;;;11.40;6.00;;;;;;;22.47;100.00;100997.23;105185;1262;59444;-49
2023/09/05 08:21:41;;;;;;;14.80;6.60;;;;;;;22.34;100.00;100996.55;105183;1261;70995;-50
2023/09/05 08:24:09;;;;;;;8.80;5.60;;;;;;;22.30;100.00;100996.84;105201;1268;63331;-50
2023/09/05 08:26:39;;;;;;;6.50;5.80;;;;;;;22.18;100.00;100991.22;105174;1268;72502;-51
2023/09/05 08:29:06;;;;;;;10.40;6.60;;;;;;;22.15;100.00;100963.97;105238;1263;60474;-50
2023/09/05 08:31:34;;;;;;;8.00;6.20;;;;;;;22.20;100.00;100954.85;105212;1268;59647;-52
2023/09/05 08:34:02;;;;;;;9.20;6.20;;;;;;;22.30;100.00;100950.95;105200;1263;71801;-52
2023/09/05 08:36:30;;;;;;;9.40;6.80;;;;;;;22.35;100.00;100962.05;105190;1261;64557;-51
2023/09/05 08:38:58;;;;;;;16.40;7.20;;;;;;;22.40;100.00;100963.88;105207;1268;72881;-50
2023/09/05 08:41:26;;;;;;;12.00;7.20;;;;;;;22.60;100.00;100965.70;105210;1263;59915;-52
2023/09/05 08:43:53;;;;;;;7.60;6.20;;;;;;;22.82;100.00;101005.73;105184;1262;59567;-54
2023/09/05 08:46:25;;;;;;;7.20;6.20;;;;;;;22.97;100.00;101038.75;105225;1268;71848;-50
2023/09/05 08:48:53;;;;;;;13.00;6.30;;;;;;;23.00;100.00;101064.29;105232;1263;63348;-51
2023/09/05 08:51:24;;;;;;;11.40;7.30;;;;;;;23.12;100.00;101060.90;105211;1263;71386;-52
2023/09/05 08:53:56;;;;;;;10.10;7.10;;;;;;;23.29;100.00;101057.07;105094;1266;60505;-50
2023/09/05 08:56:25;;;;;;;9.50;6.50;;;;;;;23.50;100.00;101066.68;105223;1261;60432;-51
2023/09/05 08:58:53;;;;;;;10.30;7.20;;;;;;;23.67;100.00;101080.23;105207;1267;73054;-53
2023/09/05 09:01:21;;;;;;;11.70;6.70;;;;;;;23.84;100.00;101091.61;105238;1263;63248;-52
2023/09/05 09:03:51;;;;;;;11.40;6.50;;;;;;;24.04;100.00;101109.59;105149;1266;71396;-51
2023/09/05 09:06:24;;;;;;;8.20;7.00;;;;;;;24.20;100.00;101112.81;105183;1268;59750;-53
2023/09/05 09:08:53;;;;;;;13.50;7.10;;;;;;;24.23;100.00;101100.94;105210;1265;59740;-51
2023/09/05 09:11:22;;;;;;;10.50;7.50;;;;;;;24.22;100.00;101120.91;105186;1268;73072;-53
2023/09/05 09:13:57;;;;;;;10.60;7.50;;;;;;;24.29;100.00;101126.31;105168;1263;63265;-53
2023/09/05 09:16:25;;;;;;;15.10;7.00;;;;;;;24.36;100.00;101128.31;104899;1269;72633;-53
2023/09/05 09:19:02;;;;;;;9.30;6.50;;;;;;;24.29;100.00;101139.91;105112;1266;59769;-51
2023/09/05 09:21:31;;;;;;;18.00;7.20;;;;;;;24.08;100.00;101149.67;105201;1266;59697;-53
2023/09/05 09:24:00;;;;;;;9.20;6.30;;;;;;;23.80;100.00;101170.82;105588;1256;72987;-52
2023/09/05 09:26:28;;;;;;;10.60;7.20;;;;;;;23.74;100.00;101158.67;105609;1257;64363;-51
2023/09/05 09:28:56;;;;;;;15.40;7.00;;;;;;;23.75;100.00;101144.89;105546;1257;70791;-50
2023/09/05 09:31:26;;;;;;;13.50;8.50;;;;;;;23.73;100.00;101139.59;105453;1262;59751;-52
2023/09/05 09:33:58;;;;;;;13.20;9.70;;;;;;;23.69;100.00;101138.19;105461;1262;59616;-50
2023/09/05 09:36:34;;;;;;;15.40;8.60;;;;;;;23.57;100.00;101150.60;105555;1257;71829;-52
2023/09/05 09:39:10;;;;;;;15.10;7.30;;;;;;;23.57;100.00;101139.84;105619;1257;64426;-51
2023/09/05 09:41:46;;;;;;;7.50;6.70;;;;;;;23.52;100.00;101134.69;105584;1257;71359;-53
2023/09/05 09:44:25;;;;;;;16.60;7.00;;;;;;;23.47;100.00;101137.48;105592;1256;59728;-52
2023/09/05 09:46:54;;;;;;;15.70;7.40;;;;;;;23.56;100.00;101128.45;105568;1261;59574;-51
2023/09/05 09:49:27;;;;;;;13.50;8.00;;;;;;;23.69;100.00;101128.55;105584;1256;73052;-52
2023/09/05 09:51:58;;;;;;;12.40;7.40;;;;;;;23.78;100.00;101119.30;105601;1257;63514;-52
2023/09/05 09:54:31;;;;;;;10.40;7.00;;;;;;;23.78;100.00;101131.99;105597;1257;72590;-51
2023/09/05 09:57:03;;;;;;;16.80;8.10;;;;;;;23.71;100.00;101130.54;105682;1257;59998;-52
2023/09/05 09:59:35;;;;;;;12.10;7.30;;;;;;;23.57;100.00;101138.05;105608;1256;59986;-51
2023/09/05 10:02:09;;;;;;;11.90;7.40;;;;;;;23.44;100.00;101145.08;105617;1257;73156;-54
2023/09/05 10:04:42;;;;;;;10.30;6.70;;;;;;;23.27;100.00;101151.53;105517;1262;64331;-50
2023/09/05 10:07:14;;;;;;;9.00;7.00;;;;;;;23.11;100.00;101142.27;105530;1261;71380;-55
2023/09/05 10:09:44;;;;;;;11.70;6.70;;;;;;;22.96;100.00;101136.82;105610;1261;60041;-52
2023/09/05 10:12:14;;;;;;;7.90;6.10;;;;;;;22.91;100.00;101116.89;105611;1261;59684;-53
2023/09/05 10:14:42;;;;;;;9.40;6.30;;;;;;;22.81;100.00;101097.42;105594;1257;73122;-50
2023/09/05 10:17:09;;;;;;;10.40;6.20;;;;;;;22.76;100.00;101068.03;105516;1262;64373;-52
2023/09/05 10:19:37;;;;;;;13.70;6.40;;;;;;;22.70;100.00;101060.60;105597;1261;72625;-52
2023/09/05 10:22:05;;;;;;;7.90;6.70;;;;;;;22.61;100.00;101058.70;105551;1262;60460;-52
2023/09/05 10:24:32;;;;;;;11.80;7.00;;;;;;;22.55;100.00;101049.89;105654;1261;59662;-51
2023/09/05 10:27:00;;;;;;;12.10;6.80;;;;;;;22.50;100.00;101046.50;105461;1256;71842;-52
2023/09/05 10:29:33;;;;;;;10.10;7.40;;;;;;;22.46;100.00;101040.40;105591;1260;64338;-52
2023/09/05 10:32:01;;;;;;;7.70;6.40;;;;;;;22.39;100.00;101035.88;105641;1259;71525;-51
2023/09/05 10:34:48;;;;;;;12.90;6.20;;;;;;;22.37;100.00;101019.80;105605;1261;60364;-52
2023/09/05 10:37:22;;;;;;;9.30;7.20;;;;;;;22.37;100.00;101000.29;105600;1262;59643;-52
2023/09/05 10:39:51;;;;;;;11.80;7.00;;;;;;;22.37;100.00;100993.74;105615;1257;71771;-52
2023/09/05 10:42:18;;;;;;;8.50;6.60;;;;;;;22.39;100.00;101000.70;105472;1257;63136;-52
2023/09/05 10:44:47;;;;;;;13.60;7.30;;;;;;;22.38;100.00;100996.88;105423;1264;73215;-52
2023/09/05 10:47:33;;;;;;;8.90;6.30;;;;;;;22.38;100.00;100999.17;105627;1262;60105;-52
2023/09/05 10:50:09;;;;;;;7.20;6.50;;;;;;;22.36;100.00;100983.98;105610;1257;59983;-50
2023/09/05 10:52:36;;;;;;;13.40;7.40;;;;;;;22.47;100.00;100972.84;105598;1261;74089;-52
2023/09/05 10:55:29;;;;;;;14.10;8.80;;;;;;;22.61;100.00;100965.30;105569;1257;63228;-51
2023/09/05 10:57:58;;;;;;;12.00;8.90;;;;;;;22.69;100.00;100973.44;105614;1257;71400;-52
2023/09/05 11:00:29;;;;;;;12.90;8.20;;;;;;;22.77;100.00;100989.67;105601;1261;60004;-51
2023/09/05 11:03:12;;;;;;;15.70;8.00;;;;;;;22.81;100.00;101008.42;105592;1261;59620;-51
2023/09/05 11:05:42;;;;;;;13.20;7.10;;;;;;;22.84;100.00;101028.79;105592;1257;71835;-50
2023/09/05 11:08:22;;;;;;;7.90;7.10;;;;;;;22.91;100.00;101030.64;105609;1256;63191;-51
2023/09/05 11:10:53;;;;;;;10.90;6.50;;;;;;;23.03;100.00;101027.63;105606;1262;72652;-52
2023/09/05 11:13:21;;;;;;;10.10;6.10;;;;;;;23.09;100.00;101047.71;105594;1257;60013;-51
2023/09/05 11:15:57;;;;;;;9.70;5.60;;;;;;;23.11;100.00;101049.13;105535;1257;59728;-51
2023/09/05 11:18:25;;;;;;;8.30;6.40;;;;;;;23.21;100.00;101048.20;105490;1257;73482;-52
2023/09/05 11:20:53;;;;;;;7.30;5.70;;;;;;;23.26;100.00;101051.74;105561;1257;64463;-52
2023/09/05 11:23:25;;;;;;;13.20;7.50;;;;;;;23.45;100.00;101043.19;105604;1260;72059;-51